Bladensburg, MD (20710)

7:47 PM EDT on September 02, 2014 (GMT -0400)
Riverdale Park | Change Station
CLOSE
Current Station
Personal Weather Station
Location: Riverdale, MD
Elevation: 52 ft
Nearby Weather Stations

Elev 52 ft 38.96 °N, 76.94 °W | Updated 1 second ago

Rain
Rain
74.4 °F
Feels Like 73 °F
N
10.0
Wind Variable Wind from WNW
Gusts 36.0 mph

Today
High -- | Low -- °F
--% Chance of Precip.
Yesterday
High -- | Low -- °F
Precip. -- in
6:37 AM 7:36 PM
First Quarter, 56% visible
Pressure 29.89 in
Visibility 10.0 miles
Clouds Scattered Clouds 6500 ft
Scattered Clouds 8000 ft
Mostly Cloudy 12000 ft
Heat Index 73 °F
Dew Point 71 °F
Humidity 89%
Rainfall 0.47 in
Snow Depth Not available.
UV 0 out of 12
Pollen 9.80 out of 12
Air Quality Not available.
Flu Activity Not available.
METAR KCGS 022330Z AUTO 31008KT 10SM SCT065 SCT080 BKN120 26/21 A2989 RMK AO1

More Conditions Fewer Conditions

Pressure 29.89 in
Visibility 10.0 miles
Clouds Scattered Clouds 6500 ft
Scattered Clouds 8000 ft
Mostly Cloudy 12000 ft
Heat Index 73 °F
Dew Point 71 °F
Humidity 89%
Rainfall 0.47 in
Snow Depth Not available.
UV 0 out of 12
Pollen 9.80 out of 12
Air Quality Not available.
Flu Activity Not available.
METAR KCGS 022330Z AUTO 31008KT 10SM SCT065 SCT080 BKN120 26/21 A2989 RMK AO1

More Conditions Fewer Conditions

Nowcast | as of 7:21 PM EDT on September 2, 2014

At 719 PM EDT...Doppler radar detected a thunderstorm. This thunderstorm was located near Ballston...moving east at 40 mph. Locations that likely will be impacted include the White House... Anacostia...nationals park...Bolling Air Force Base...The Mall... Suitland...Suitland-Silver Hill...Coral Hills...Marlow Heights and Forestville. Occasional cloud to ground lightning is occurring. Move indoors until the storm has passed. Gusty winds of 30 to 40 mph can be expected. Heavy downpours could reduce visibilities and cause water to pond on roadways. Lat...Lon 3871 7675 3879 7721 3896 7717 3893 7671 time...Mot...loc 2321z 278deg 36kt 3887 7712

×

10-Day Weather Forecast

Almanac

Astronomy

Sep. 02, 2014 Rise Set
Actual Time 6:37 AM EDT 7:36 PM EDT
Civil Twilight 6:10 AM EDT 8:03 PM EDT
Nautical Twilight 5:37 AM EDT 8:36 PM EDT
Astronomical Twilight 5:04 AM EDT 9:09 PM EDT
Moon 2:15 PM EDT No Moon Set
Length of Visible Light 13h 53m
Length of Day
12h 59m
Tomorrow will be 2m 27s shorter.
First Quarter, 56% of the Moon is Illuminated
Today
First Quarter
Sep 8
Full
Sep 15
Last Quarter
Sep 24
New
Oct 1
First Quarter

Today's Extremes

State Highs State Lows

Community

WunderPhotos

Upload Photos

1,749,799 photos uploaded!

Nearby

Snow Depth

Station Depth Elevation
No new snow has been reported.

Earthquake Activity

City Distance Mag. Time & Date
No recent earthquake activity has been reported nearby.
Minimum magnitude displayed is 2.5.

Coastal Water Temperatures

Place Temperature
Washington, DC 82.0 °F
Baltimore, MD 82.9 °F
Solomons Island, MD 82.9 °F

Nearby Weather Stations